Time;durP1;ratioP1;P1;durP2;ratioP2;P2;SDS_P1;SDS_P2;PMS_P1;PMS_P2;Temp;Humidity;BMP_temperature;BMP_pressure;BME280_temperature;BME280_humidity;BME280_pressure;Samples;Min_cycle;Max_cycle;Signal;HPM_P1;HPM_P2
2022/09/26 00:00:29;;;;;;;9.88;3.67;;;;;;;7.36;100.00;100606.09;2087920;28;32266;-74
2022/09/26 00:01:36;;;;;;;6.38;3.17;;;;;;;7.37;100.00;100612.31;2087375;28;32544;-74
2022/09/26 00:02:38;;;;;;;7.80;3.25;;;;;;;7.42;100.00;100607.78;2078570;28;35449;-74
2022/09/26 00:03:49;;;;;;;9.10;3.30;;;;;;;7.39;100.00;100603.41;2079920;28;27238;-74
2022/09/26 00:04:52;;;;;;;4.20;3.30;;;;;;;7.36;100.00;100600.78;2088595;28;39344;-74
2022/09/26 00:06:03;;;;;;;10.57;3.40;;;;;;;7.39;100.00;100608.72;2088735;28;34181;-74
2022/09/26 00:07:05;;;;;;;4.70;2.83;;;;;;;7.39;100.00;100599.84;2089032;28;31545;-74
2022/09/26 00:08:07;;;;;;;9.75;3.60;;;;;;;7.43;100.00;100601.56;2088808;28;40231;-75
2022/09/26 00:09:09;;;;;;;5.70;3.38;;;;;;;7.42;100.00;100599.81;2079831;28;28200;-75
2022/09/26 00:10:11;;;;;;;7.35;3.53;;;;;;;7.51;100.00;100594.31;2080502;28;33006;-74
2022/09/26 00:11:17;;;;;;;5.20;3.25;;;;;;;7.49;100.00;100593.47;2079584;28;36000;-73
2022/09/26 00:12:18;;;;;;;4.85;3.30;;;;;;;7.54;100.00;100594.28;2080643;28;24023;-74
2022/09/26 00:13:23;;;;;;;6.43;3.50;;;;;;;7.54;100.00;100588.97;2080968;28;20038;-74
2022/09/26 00:14:28;;;;;;;5.82;3.13;;;;;;;7.52;100.00;100596.09;2088892;28;33079;-74
2022/09/26 00:15:29;;;;;;;5.15;3.25;;;;;;;7.56;100.00;100592.47;2079520;28;32702;-74
2022/09/26 00:16:34;;;;;;;5.03;3.17;;;;;;;7.60;100.00;100583.50;2080357;28;35792;-74
2022/09/26 00:17:36;;;;;;;5.57;3.20;;;;;;;7.67;100.00;100588.75;2088383;28;29300;-74
2022/09/26 00:18:39;;;;;;;6.30;3.63;;;;;;;7.72;100.00;100585.09;2088794;28;40632;-75
2022/09/26 00:19:43;;;;;;;8.38;2.88;;;;;;;7.75;100.00;100584.16;2088643;28;40098;-74
2022/09/26 00:20:44;;;;;;;8.13;3.60;;;;;;;7.78;100.00;100584.13;2088741;28;32071;-74
2022/09/26 00:21:47;;;;;;;5.85;3.08;;;;;;;7.82;100.00;100586.72;2088320;28;36288;-75
2022/09/26 00:22:48;;;;;;;6.65;3.22;;;;;;;7.82;100.00;100588.47;2089886;28;20866;-74
2022/09/26 00:23:51;;;;;;;5.20;2.97;;;;;;;7.83;100.00;100576.94;2088798;28;33198;-75
2022/09/26 00:24:52;;;;;;;5.50;3.10;;;;;;;7.88;100.00;100577.72;2084119;28;32929;-75
2022/09/26 00:25:57;;;;;;;5.03;3.03;;;;;;;7.90;100.00;100567.03;2088523;28;32313;-74
2022/09/26 00:26:58;;;;;;;6.15;3.25;;;;;;;7.96;100.00;100574.91;2088648;28;35147;-75
2022/09/26 00:28:00;;;;;;;7.45;2.85;;;;;;;7.96;100.00;100570.44;2079766;28;30348;-75
2022/09/26 00:29:08;;;;;;;6.22;2.90;;;;;;;8.03;100.00;100572.09;2071996;28;24139;-75
2022/09/26 00:30:10;;;;;;;4.03;2.40;;;;;;;8.05;100.00;100573.88;2081041;28;33220;-75
2022/09/26 00:31:17;;;;;;;7.43;3.17;;;;;;;8.06;100.00;100570.28;2089349;28;20068;-75
2022/09/26 00:32:19;;;;;;;5.53;2.92;;;;;;;8.07;100.00;100569.38;2088744;28;29386;-75
2022/09/26 00:33:21;;;;;;;4.70;2.72;;;;;;;8.08;100.00;100560.50;2088742;28;31432;-75
2022/09/26 00:34:23;;;;;;;7.45;3.10;;;;;;;8.07;100.00;100562.25;2089302;28;20115;-75
2022/09/26 00:35:25;;;;;;;6.22;2.70;;;;;;;8.12;100.00;100570.19;2080091;28;20030;-75
2022/09/26 00:36:28;;;;;;;6.53;3.30;;;;;;;8.13;100.00;100563.94;2071468;28;30324;-75
2022/09/26 00:37:38;;;;;;;5.97;3.00;;;;;;;8.14;100.00;100569.22;2073363;28;20047;-74
2022/09/26 00:38:40;;;;;;;3.70;2.55;;;;;;;8.15;100.00;100570.13;2079640;28;20045;-75
2022/09/26 00:39:42;;;;;;;7.45;3.22;;;;;;;8.15;100.00;100557.69;2088642;28;20890;-74
2022/09/26 00:40:45;;;;;;;6.80;2.80;;;;;;;8.17;100.00;100554.97;2079591;28;30234;-75
2022/09/26 00:41:46;;;;;;;7.38;3.00;;;;;;;8.20;100.00;100560.22;2072465;28;20862;-74
2022/09/26 00:42:48;;;;;;;5.45;3.08;;;;;;;8.19;100.00;100555.81;2080213;28;20096;-75
2022/09/26 00:43:55;;;;;;;6.60;3.03;;;;;;;8.18;100.00;100546.06;2089142;28;20042;-74
2022/09/26 00:44:57;;;;;;;5.20;2.80;;;;;;;8.19;100.00;100545.16;2089740;28;20041;-75
2022/09/26 00:46:29;;;;;;;7.05;3.05;;;;;;;8.21;100.00;100540.66;2089041;28;22122;-75
2022/09/26 00:47:47;;;;;;;5.18;3.15;;;;;;;8.18;100.00;100544.28;2089242;28;20874;-75
2022/09/26 00:49:13;;;;;;;8.05;3.00;;;;;;;8.18;100.00;100544.28;2079781;28;28721;-75
2022/09/26 00:50:26;;;;;;;8.23;2.83;;;;;;;8.19;100.00;100545.16;2077206;28;20050;-73
2022/09/26 00:51:28;;;;;;;5.28;3.10;;;;;;;8.18;100.00;100546.97;2075998;28;28451;-75
2022/09/26 00:52:43;;;;;;;7.25;3.10;;;;;;;8.21;100.00;100543.34;2079995;28;23582;-75
2022/09/26 00:53:49;;;;;;;7.13;3.28;;;;;;;8.20;100.00;100549.56;2089602;28;20029;-75
2022/09/26 00:54:56;;;;;;;7.13;3.08;;;;;;;8.23;100.00;100542.38;2070497;28;35797;-75
2022/09/26 00:56:08;;;;;;;5.25;3.22;;;;;;;8.22;100.00;100539.78;2074656;28;20074;-75
2022/09/26 00:57:18;;;;;;;6.72;3.40;;;;;;;8.23;100.00;100531.72;2088138;28;31144;-75
2022/09/26 00:58:50;;;;;;;6.93;2.85;;;;;;;8.24;100.00;100537.94;2088235;28;21398;-75
2022/09/26 01:00:00;;;;;;;6.80;3.30;;;;;;;8.25;100.00;100537.03;2080218;28;20201;-75
2022/09/26 01:01:02;;;;;;;5.47;3.35;;;;;;;8.28;100.00;100544.09;2080785;28;24603;-75
2022/09/26 01:02:04;;;;;;;6.95;3.15;;;;;;;8.27;100.00;100531.66;2080032;28;20050;-75
2022/09/26 01:03:07;;;;;;;5.40;3.55;;;;;;;8.27;100.00;100527.19;2079669;28;20675;-75
2022/09/26 01:04:11;;;;;;;4.03;2.97;;;;;;;8.30;100.00;100531.59;2088565;28;35983;-75
2022/09/26 01:05:16;;;;;;;5.82;3.45;;;;;;;8.32;100.00;100524.44;2079901;28;20034;-75
2022/09/26 01:06:21;;;;;;;7.57;3.22;;;;;;;8.33;100.00;100528.91;2080372;28;22252;-75
2022/09/26 01:07:25;;;;;;;7.50;3.53;;;;;;;8.34;100.00;100528.84;2079471;28;37228;-75
2022/09/26 01:08:37;;;;;;;8.70;3.35;;;;;;;8.36;100.00;100516.38;2063640;28;33994;-75
2022/09/26 01:09:39;;;;;;;6.60;3.88;;;;;;;8.38;100.00;100519.88;2066708;28;32067;-75
2022/09/26 01:10:41;;;;;;;6.10;3.42;;;;;;;8.39;100.00;100515.41;2081093;28;20034;-75
2022/09/26 01:11:44;;;;;;;10.30;3.47;;;;;;;8.39;100.00;100512.75;2087841;28;29689;-75
2022/09/26 01:12:56;;;;;;;5.40;3.70;;;;;;;8.41;100.00;100509.13;2088654;28;20034;-74
2022/09/26 01:13:58;;;;;;;9.93;3.60;;;;;;;8.43;100.00;100508.25;2088285;28;30068;-74
2022/09/26 01:15:00;;;;;;;6.70;3.45;;;;;;;8.45;100.00;100509.09;2079089;28;34311;-75
2022/09/26 01:16:02;;;;;;;5.88;3.55;;;;;;;8.46;100.00;100510.88;2071537;28;20034;-74
2022/09/26 01:17:08;;;;;;;5.22;3.60;;;;;;;8.45;100.00;100498.44;2063592;28;27225;-75
2022/09/26 01:18:10;;;;;;;6.72;3.38;;;;;;;8.44;100.00;100492.22;2073030;28;28312;-75
2022/09/26 01:19:40;;;;;;;5.85;3.38;;;;;;;8.47;100.00;100492.16;2088484;28;29065;-74
2022/09/26 01:20:59;;;;;;;6.38;3.60;;;;;;;8.49;100.00;100492.09;2087969;28;29842;-75
2022/09/26 01:22:19;;;;;;;5.85;3.33;;;;;;;8.50;100.00;100485.88;2079275;28;27670;-75
2022/09/26 01:24:00;;;;;;;6.82;3.25;;;;;;;8.48;100.00;100483.22;2083808;28;20041;-75
2022/09/26 01:25:27;;;;;;;5.18;2.75;;;;;;;8.48;100.00;100485.03;2079884;28;20050;-75
2022/09/26 01:26:50;;;;;;;6.30;3.10;;;;;;;8.50;100.00;100477.88;2083418;28;21649;-74
2022/09/26 01:28:45;;;;;;;5.72;2.97;;;;;;;8.52;100.00;100476.91;2087808;28;20058;-75
2022/09/26 01:30:08;;;;;;;5.93;3.13;;;;;;;8.54;100.00;100466.22;2088924;28;20657;-75
2022/09/26 01:31:36;;;;;;;4.68;2.83;;;;;;;8.53;100.00;100460.00;2079867;28;20120;-74
2022/09/26 01:33:20;;;;;;;6.95;3.40;;;;;;;8.55;100.00;100452.84;2073750;28;20043;-74
2022/09/26 01:34:39;;;;;;;5.43;3.10;;;;;;;8.58;100.00;100446.56;2060522;28;20035;-75
2022/09/26 01:36:20;;;;;;;6.82;4.00;;;;;;;8.57;100.00;100451.00;2066058;28;20876;-75
2022/09/26 01:37:39;;;;;;;8.30;3.70;;;;;;;8.60;100.00;100452.75;2045798;28;26388;-75
2022/09/26 01:39:13;;;;;;;7.70;3.72;;;;;;;8.63;100.00;100444.66;2047452;28;24877;-74
2022/09/26 01:40:42;;;;;;;5.15;3.25;;;;;;;8.65;100.00;100441.94;2086263;28;20933;-74
2022/09/26 01:42:24;;;;;;;7.15;3.70;;;;;;;8.63;100.00;100443.78;2076881;28;20050;-75
2022/09/26 01:43:38;;;;;;;5.30;3.20;;;;;;;8.63;100.00;100447.31;2077689;28;20030;-74
2022/09/26 01:44:56;;;;;;;6.28;3.42;;;;;;;8.65;100.00;100444.63;2086176;28;20064;-75
2022/09/26 01:46:03;;;;;;;4.80;3.22;;;;;;;8.67;100.00;100445.44;2080025;28;20929;-74
2022/09/26 01:47:08;;;;;;;5.85;3.60;;;;;;;8.66;100.00;100441.91;2071680;28;30006;-74
2022/09/26 01:48:19;;;;;;;6.30;3.47;;;;;;;8.66;100.00;100439.25;2072182;28;20054;-75
2022/09/26 01:49:50;;;;;;;;;;;;;;;8.65;100.00;100434.84;2073214;28;25712;-75
2022/09/26 01:51:04;;;;;;;6.35;2.95;;;;;;;8.66;100.00;100433.03;2068436;28;19933;-75
2022/09/26 01:52:37;;;;;;;5.80;3.30;;;;;;;8.64;100.00;100434.88;2075480;28;22897;-75
2022/09/26 01:54:03;;;;;;;7.45;3.88;;;;;;;8.65;100.00;100433.94;2079591;28;20057;-75
2022/09/26 01:55:17;;;;;;;7.53;3.72;;;;;;;8.62;100.00;100426.91;2066427;28;20049;-75
2022/09/26 01:56:25;;;;;;;6.07;3.42;;;;;;;8.60;100.00;100426.94;2061849;28;20129;-74
2022/09/26 01:57:40;;;;;;;7.68;3.92;;;;;;;8.62;100.00;100421.56;2057964;28;24882;-73
2022/09/26 01:58:50;;;;;;;6.45;4.25;;;;;;;8.60;100.00;100421.59;2073139;28;20038;-74
2022/09/26 01:59:56;;;;;;;;;;;;;;;8.59;100.00;100426.97;2071951;28;20062;-73
2022/09/26 02:01:07;;;;;;;5.72;4.03;;;;;;;8.60;100.00;100416.25;2072558;28;20886;-73
2022/09/26 02:02:22;;;;;;;9.68;4.18;;;;;;;8.59;100.00;100418.94;2072394;28;29232;-75
2022/09/26 02:03:35;;;;;;;6.55;4.10;;;;;;;8.58;100.00;100415.41;2065722;28;26375;-73
2022/09/26 02:04:43;;;;;;;7.90;4.00;;;;;;;8.55;100.00;100412.81;2067516;28;20050;-75
2022/09/26 02:05:57;;;;;;;6.70;3.90;;;;;;;8.58;100.00;100409.22;2065442;28;20095;-75
2022/09/26 02:07:12;;;;;;;5.78;3.80;;;;;;;8.59;100.00;100411.81;2067377;28;27117;-74
2022/09/26 02:08:39;;;;;;;6.10;4.20;;;;;;;8.58;100.00;100409.22;2065298;28;20939;-75
2022/09/26 02:09:58;;;;;;;8.02;4.60;;;;;;;8.60;100.00;100402.91;2067967;28;20110;-75
2022/09/26 02:11:11;;;;;;;8.25;4.80;;;;;;;8.61;100.00;100401.13;2076630;28;20088;-75
2022/09/26 02:12:35;;;;;;;8.70;3.92;;;;;;;8.60;100.00;100399.38;2081129;28;20054;-75
2022/09/26 02:13:54;;;;;;;5.35;3.90;;;;;;;8.59;100.00;100401.16;2078954;28;20042;-75
2022/09/26 02:15:01;;;;;;;7.72;4.07;;;;;;;8.58;100.00;100393.19;2082173;28;20131;-73
2022/09/26 02:16:18;;;;;;;6.38;4.30;;;;;;;8.61;100.00;100393.09;2071325;28;20046;-74
2022/09/26 02:17:33;;;;;;;9.25;4.20;;;;;;;8.60;100.00;100392.25;2068355;28;20333;-75
2022/09/26 02:18:49;;;;;;;6.47;3.83;;;;;;;8.59;100.00;100385.13;2074074;28;20022;-75
2022/09/26 02:20:04;;;;;;;10.82;5.05;;;;;;;8.59;100.00;100385.13;2065860;28;20046;-75
2022/09/26 02:21:16;;;;;;;9.13;4.45;;;;;;;8.60;100.00;100376.22;2069054;28;20081;-75
2022/09/26 02:22:18;;;;;;;6.72;4.03;;;;;;;8.61;100.00;100379.75;2073877;28;20038;-75
2022/09/26 02:23:21;;;;;;;7.47;4.45;;;;;;;8.60;100.00;100376.22;2071392;28;20896;-75
2022/09/26 02:24:23;;;;;;;7.85;4.75;;;;;;;8.62;100.00;100368.19;2071195;28;20049;-74
2022/09/26 02:25:27;;;;;;;8.10;4.45;;;;;;;8.63;100.00;100367.25;2079357;28;20046;-74
2022/09/26 02:26:32;;;;;;;6.07;4.32;;;;;;;8.64;100.00;100368.16;2087254;28;20187;-75
2022/09/26 02:27:34;;;;;;;4.93;4.30;;;;;;;8.65;100.00;100362.78;2071543;28;20834;-74
2022/09/26 02:28:37;;;;;;;5.95;4.55;;;;;;;8.66;100.00;100364.53;2071581;28;20106;-75
2022/09/26 02:29:44;;;;;;;6.35;4.80;;;;;;;8.65;100.00;100361.88;2079625;28;20089;-75
2022/09/26 02:30:51;;;;;;;7.03;4.40;;;;;;;8.64;100.00;100357.47;2071417;28;20074;-74
2022/09/26 02:31:59;;;;;;;9.45;4.57;;;;;;;8.63;100.00;100359.25;2064351;28;20046;-74
2022/09/26 02:33:02;;;;;;;7.40;4.05;;;;;;;8.63;100.00;100351.25;2071604;28;20852;-75
2022/09/26 02:34:07;;;;;;;8.73;4.40;;;;;;;8.67;100.00;100347.63;2086224;28;20831;-75
2022/09/26 02:36:33;;;;;;;9.27;4.82;;;;;;;8.68;100.00;100349.34;2065807;28;21098;-75
2022/09/26 02:37:37;;;;;;;6.40;4.50;;;;;;;8.71;100.00;100340.41;2071934;28;20236;-75
2022/09/26 02:38:39;;;;;;;6.38;4.15;;;;;;;8.69;100.00;100343.09;2087452;28;20057;-75
2022/09/26 02:40:07;;;;;;;6.15;4.07;;;;;;;8.70;100.00;100350.19;2084334;28;20057;-75
2022/09/26 02:41:24;;;;;;;7.43;3.85;;;;;;;8.71;100.00;100338.59;2071261;28;20042;-74
2022/09/26 02:42:38;;;;;;;6.50;3.53;;;;;;;8.70;100.00;100339.50;2073563;28;20954;-75
2022/09/26 02:44:33;;;;;;;6.03;4.07;;;;;;;8.76;100.00;100338.50;2071562;28;20054;-75
2022/09/26 02:45:48;;;;;;;7.93;3.92;;;;;;;8.74;100.00;100333.19;2078125;28;20894;-74
2022/09/26 02:47:20;;;;;;;7.75;4.10;;;;;;;8.76;100.00;100334.03;2078622;28;20042;-74
2022/09/26 02:48:47;;;;;;;4.50;3.70;;;;;;;8.80;100.00;100326.81;2081467;28;20135;-75
2022/09/26 02:50:34;;;;;;;9.18;4.15;;;;;;;8.81;100.00;100325.03;2084226;28;20046;-74
2022/09/26 02:52:18;;;;;;;5.32;3.30;;;;;;;8.85;100.00;100321.38;2080973;28;20049;-75
2022/09/26 02:54:06;;;;;;;9.13;3.28;;;;;;;8.87;100.00;100319.53;2071008;28;20043;-75
2022/09/26 02:55:39;;;;;;;7.50;3.10;;;;;;;8.83;100.00;100313.41;2082556;28;20046;-75
2022/09/26 02:57:07;;;;;;;5.05;3.45;;;;;;;8.87;100.00;100319.53;2079743;28;20108;-74
2022/09/26 02:58:51;;;;;;;4.85;3.67;;;;;;;8.85;100.00;100308.91;2074597;28;20042;-74
2022/09/26 03:00:35;;;;;;;4.25;3.28;;;;;;;8.84;100.00;100311.59;2076424;28;20880;-75
2022/09/26 03:02:14;;;;;;;7.85;3.63;;;;;;;8.87;100.00;100308.88;2071267;28;20047;-74
2022/09/26 03:03:39;;;;;;;10.23;3.65;;;;;;;8.82;100.00;100300.97;2068538;28;20045;-74
2022/09/26 03:05:04;;;;;;;7.18;3.30;;;;;;;8.89;100.00;100296.34;2073225;28;20042;-75
2022/09/26 03:06:13;;;;;;;6.07;3.40;;;;;;;8.86;100.00;100291.94;2067127;28;20027;-74
2022/09/26 03:08:10;;;;;;;4.10;2.85;;;;;;;8.85;100.00;100289.34;2066868;28;20360;-74
2022/09/26 03:09:19;;;;;;;5.65;3.17;;;;;;;8.88;100.00;100292.81;2077747;28;20244;-74
2022/09/26 03:10:22;;;;;;;6.22;3.20;;;;;;;8.87;100.00;100290.19;2078762;28;29426;-74
2022/09/26 03:11:27;;;;;;;11.48;3.75;;;;;;;8.89;100.00;100285.66;2080805;28;20830;-75
2022/09/26 03:12:32;;;;;;;6.50;3.65;;;;;;;8.90;100.00;100290.06;2070450;28;20135;-74
2022/09/26 03:13:37;;;;;;;5.43;3.08;;;;;;;8.90;100.00;100287.41;2072523;28;20050;-74
2022/09/26 03:14:42;;;;;;;6.95;3.25;;;;;;;8.91;100.00;100283.84;2087487;28;20839;-74
2022/09/26 03:15:52;;;;;;;5.72;3.40;;;;;;;8.91;100.00;100283.84;2079706;28;20046;-75
2022/09/26 03:16:58;;;;;;;5.43;2.97;;;;;;;8.92;100.00;100277.59;2073496;28;20039;-74
2022/09/26 03:18:05;;;;;;;6.80;3.00;;;;;;;8.93;100.00;100282.00;2071245;28;20071;-75
2022/09/26 03:19:26;;;;;;;4.65;3.00;;;;;;;8.95;100.00;100274.81;2071611;28;22720;-75
2022/09/26 03:20:30;;;;;;;8.50;2.88;;;;;;;8.98;100.00;100280.06;2066366;28;20050;-73
2022/09/26 03:21:33;;;;;;;8.65;3.38;;;;;;;9.00;100.00;100266.69;2058085;28;20115;-74
2022/09/26 03:22:39;;;;;;;4.25;3.00;;;;;;;9.00;100.00;100270.22;2064299;28;20169;-74
2022/09/26 03:23:42;;;;;;;4.60;3.15;;;;;;;9.03;100.00;100267.47;2063551;28;20035;-73
2022/09/26 03:24:45;;;;;;;6.00;2.70;;;;;;;9.05;100.00;100264.78;2055111;28;20043;-73
2022/09/26 03:26:06;;;;;;;7.35;3.05;;;;;;;9.06;100.00;100267.41;2063781;28;21074;-73
2022/09/26 03:27:13;;;;;;;6.15;2.95;;;;;;;9.06;100.00;100264.75;2082222;28;20045;-73
2022/09/26 03:28:15;;;;;;;5.88;2.72;;;;;;;9.06;100.00;100264.75;2087485;28;20038;-73
2022/09/26 03:29:20;;;;;;;7.13;3.58;;;;;;;9.09;100.00;100261.97;2078931;28;20038;-73
2022/09/26 03:30:22;;;;;;;6.00;2.90;;;;;;;9.09;100.00;100253.94;2063134;28;20924;-73
2022/09/26 03:31:44;;;;;;;4.78;3.03;;;;;;;9.10;100.00;100255.72;2065861;28;20124;-73
2022/09/26 03:32:50;;;;;;;6.50;3.15;;;;;;;9.10;100.00;100246.84;2077358;28;20152;-75
2022/09/26 03:33:52;;;;;;;5.00;3.40;;;;;;;9.12;100.00;100248.53;2087999;28;27626;-75
2022/09/26 03:34:54;;;;;;;6.80;3.47;;;;;;;9.12;100.00;100251.19;2078971;28;20038;-73
2022/09/26 03:35:58;;;;;;;7.30;2.97;;;;;;;9.14;100.00;100244.00;2071024;28;20042;-75
2022/09/26 03:37:00;;;;;;;6.28;3.03;;;;;;;9.15;100.00;100256.47;2071366;28;20038;-74
2022/09/26 03:38:04;;;;;;;4.25;2.80;;;;;;;9.13;100.00;100247.63;2079896;28;20049;-75
2022/09/26 03:39:12;;;;;;;7.25;2.90;;;;;;;9.14;100.00;100244.00;2079920;28;20120;-74
2022/09/26 03:40:30;;;;;;;8.05;2.90;;;;;;;9.16;100.00;100250.19;2074749;28;20034;-75
2022/09/26 03:41:57;;;;;;;7.28;3.13;;;;;;;9.20;100.00;100245.63;2084498;28;20127;-76
2022/09/26 03:43:01;;;;;;;4.80;2.97;;;;;;;9.22;100.00;100245.59;2088673;28;20045;-74
2022/09/26 03:44:03;;;;;;;5.80;2.80;;;;;;;9.22;100.00;100245.59;2088838;28;20045;-74
2022/09/26 03:45:25;;;;;;;5.05;2.70;;;;;;;9.24;100.00;100238.41;2083468;28;20840;-74
2022/09/26 03:46:33;;;;;;;4.88;2.97;;;;;;;9.27;100.00;100243.66;2089086;28;20054;-74
2022/09/26 03:47:40;;;;;;;6.13;3.08;;;;;;;9.27;100.00;100238.31;2080190;28;20200;-73
2022/09/26 03:48:42;;;;;;;5.47;2.97;;;;;;;9.28;100.00;100235.63;2072158;28;20284;-74
2022/09/26 03:49:44;;;;;;;3.72;2.83;;;;;;;9.27;100.00;100238.31;2080389;28;20030;-74
2022/09/26 03:50:47;;;;;;;5.72;3.20;;;;;;;9.28;100.00;100234.75;2080387;28;20056;-73
2022/09/26 03:51:52;;;;;;;4.63;2.90;;;;;;;9.28;100.00;100221.41;2080959;28;20034;-74
2022/09/26 03:52:54;;;;;;;5.00;3.08;;;;;;;9.30;100.00;100227.56;2088592;28;26912;-75
2022/09/26 03:53:56;;;;;;;5.15;2.88;;;;;;;9.29;100.00;100225.78;2079882;28;23157;-75
2022/09/26 03:54:59;;;;;;;5.90;3.03;;;;;;;9.31;100.00;100224.84;2073060;28;20039;-75
2022/09/26 03:56:09;;;;;;;4.13;2.80;;;;;;;9.30;100.00;100223.09;2071753;28;20124;-75
2022/09/26 03:57:15;;;;;;;9.23;3.00;;;;;;;9.30;100.00;100216.88;2088355;28;20034;-74
2022/09/26 03:58:25;;;;;;;4.38;3.05;;;;;;;9.31;100.00;100216.84;2079532;28;20243;-74
2022/09/26 03:59:28;;;;;;;5.55;2.90;;;;;;;9.32;100.00;100217.72;2072912;28;20054;-75
2022/09/26 04:00:33;;;;;;;4.55;2.95;;;;;;;9.33;100.00;100211.41;2072684;28;20882;-74
2022/09/26 04:01:35;;;;;;;8.10;3.42;;;;;;;9.32;100.00;100202.53;2080654;28;20899;-75
2022/09/26 04:02:37;;;;;;;4.55;3.03;;;;;;;9.34;100.00;100210.50;2089061;28;25802;-75
2022/09/26 04:03:52;;;;;;;4.65;3.08;;;;;;;9.38;100.00;100208.63;2080151;28;20066;-75
2022/09/26 04:04:54;;;;;;;4.47;3.20;;;;;;;9.38;100.00;100209.50;2072181;28;20819;-75
2022/09/26 04:05:56;;;;;;;5.40;3.22;;;;;;;9.40;100.00;100204.97;2080086;28;29301;-75
2022/09/26 04:06:59;;;;;;;7.97;3.65;;;;;;;9.41;100.00;100196.06;2079548;28;20046;-75
2022/09/26 04:08:02;;;;;;;6.68;3.25;;;;;;;9.43;100.00;100193.34;2072421;28;20042;-74
2022/09/26 04:09:05;;;;;;;6.88;3.70;;;;;;;9.43;100.00;100196.88;2072501;28;20046;-75
2022/09/26 04:10:09;;;;;;;7.45;3.65;;;;;;;9.45;100.00;100196.84;2080168;28;20046;-74
2022/09/26 04:11:17;;;;;;;7.13;3.70;;;;;;;9.47;100.00;100195.84;2080023;28;20915;-75
2022/09/26 04:12:19;;;;;;;7.15;3.80;;;;;;;9.48;100.00;100192.28;2081753;28;20161;-75
2022/09/26 04:13:21;;;;;;;7.22;3.70;;;;;;;9.46;100.00;100186.09;2089015;28;29426;-75
2022/09/26 04:14:43;;;;;;;7.20;3.90;;;;;;;9.51;100.00;100181.50;2089683;28;20059;-75
2022/09/26 04:15:54;;;;;;;7.40;3.75;;;;;;;9.51;100.00;100189.53;2080431;28;20054;-75
2022/09/26 04:16:57;;;;;;;8.30;3.70;;;;;;;9.52;100.00;100180.56;2073070;28;20076;-75
2022/09/26 04:18:12;;;;;;;5.80;4.05;;;;;;;9.54;100.00;100184.06;2082512;28;20090;-74
2022/09/26 04:19:16;;;;;;;8.10;3.95;;;;;;;9.55;100.00;100176.94;2088780;28;20036;-73
2022/09/26 04:20:19;;;;;;;6.55;3.88;;;;;;;9.55;100.00;100180.47;2088620;28;20034;-76
2022/09/26 04:21:21;;;;;;;5.50;3.97;;;;;;;9.56;100.00;100173.31;2088537;28;20045;-75
2022/09/26 04:22:26;;;;;;;7.55;4.22;;;;;;;9.58;100.00;100167.94;2080315;28;20064;-75
2022/09/26 04:23:32;;;;;;;6.18;3.97;;;;;;;9.59;100.00;100172.38;2072098;28;20077;-75
2022/09/26 04:24:34;;;;;;;8.18;4.20;;;;;;;9.61;100.00;100170.53;2072822;28;20082;-75
2022/09/26 04:25:36;;;;;;;6.82;4.10;;;;;;;9.61;100.00;100167.84;2080247;28;20046;-75
2022/09/26 04:26:42;;;;;;;5.65;3.92;;;;;;;9.63;100.00;100160.66;2080411;28;20050;-75
2022/09/26 04:27:46;;;;;;;8.50;4.43;;;;;;;9.63;100.00;100166.00;2080763;28;20256;-75
2022/09/26 04:28:53;;;;;;;6.95;4.55;;;;;;;9.63;100.00;100171.34;2080418;28;20874;-75
2022/09/26 04:29:56;;;;;;;5.40;3.90;;;;;;;9.64;100.00;100167.75;2072522;28;20168;-75
2022/09/26 04:31:22;;;;;;;6.22;4.20;;;;;;;9.65;100.00;100165.00;2077776;28;21000;-75
2022/09/26 04:32:30;;;;;;;5.63;3.90;;;;;;;9.66;100.00;100157.88;2080327;28;20435;-75
2022/09/26 04:34:04;;;;;;;6.32;4.68;;;;;;;9.67;100.00;100151.59;2075119;28;20233;-75
2022/09/26 04:35:08;;;;;;;11.18;4.53;;;;;;;9.67;100.00;100159.63;2077675;28;20057;-75
2022/09/26 04:36:12;;;;;;;6.10;4.50;;;;;;;9.67;100.00;100162.28;2080331;28;26788;-74
2022/09/26 04:37:14;;;;;;;7.10;4.63;;;;;;;9.66;100.00;100171.25;2088525;28;20045;-75
2022/09/26 04:38:17;;;;;;;7.00;4.45;;;;;;;9.66;100.00;100165.91;2080462;28;20046;-75
2022/09/26 04:39:19;;;;;;;6.70;4.88;;;;;;;9.66;100.00;100160.56;2080629;28;20034;-73
2022/09/26 04:40:23;;;;;;;7.75;4.90;;;;;;;9.64;100.00;100157.06;2088608;28;20048;-73
2022/09/26 04:41:36;;;;;;;7.40;4.68;;;;;;;9.65;100.00;100148.09;2080248;28;20128;-74
2022/09/26 04:42:40;;;;;;;6.05;4.38;;;;;;;9.64;100.00;100157.06;2072456;28;20087;-75
2022/09/26 04:43:42;;;;;;;6.15;4.60;;;;;;;9.63;100.00;100160.66;2080389;28;20986;-73
2022/09/26 04:44:48;;;;;;;6.78;4.90;;;;;;;9.63;100.00;100158.84;2088530;28;21109;-73
2022/09/26 04:45:50;;;;;;;8.05;5.05;;;;;;;9.61;100.00;100149.13;2080309;28;20049;-73
2022/09/26 04:46:52;;;;;;;7.97;4.28;;;;;;;9.62;100.00;100149.09;2079853;28;20195;-74
2022/09/26 04:47:59;;;;;;;8.80;4.72;;;;;;;9.60;100.00;100147.38;2080083;28;20046;-75
2022/09/26 04:49:22;;;;;;;6.15;4.80;;;;;;;9.60;100.00;100148.28;2083209;28;20081;-75
2022/09/26 04:50:27;;;;;;;9.45;5.07;;;;;;;9.59;100.00;100145.66;2086889;28;20042;-75
2022/09/26 04:51:39;;;;;;;7.63;4.63;;;;;;;9.58;100.00;100149.22;2088874;28;20135;-75
2022/09/26 04:52:41;;;;;;;8.60;5.20;;;;;;;9.58;100.00;100141.22;2088199;28;20053;-75
2022/09/26 04:53:43;;;;;;;7.05;4.95;;;;;;;9.56;100.00;100135.91;2088392;28;20930;-75
2022/09/26 04:54:54;;;;;;;6.82;4.85;;;;;;;9.56;100.00;100135.91;2088432;28;20112;-75
2022/09/26 04:55:55;;;;;;;8.00;5.63;;;;;;;9.54;100.00;100141.28;2079411;28;29826;-75
2022/09/26 04:57:00;;;;;;;8.02;4.72;;;;;;;9.53;100.00;100134.22;2080542;28;20046;-76
2022/09/26 04:58:02;;;;;;;6.45;4.95;;;;;;;9.53;100.00;100144.91;2080020;28;20043;-75
2022/09/26 04:59:05;;;;;;;8.73;5.38;;;;;;;9.51;100.00;100136.06;2072169;28;20046;-75
2022/09/26 05:00:17;;;;;;;9.27;5.45;;;;;;;9.51;100.00;100133.41;2073047;28;20872;-74
2022/09/26 05:01:20;;;;;;;7.82;5.40;;;;;;;9.51;100.00;100132.50;2080067;28;20046;-74
2022/09/26 05:02:46;;;;;;;7.90;5.03;;;;;;;9.50;100.00;100134.31;2072179;28;20085;-74
2022/09/26 05:03:48;;;;;;;5.97;5.15;;;;;;;9.51;100.00;100138.75;2075744;28;20050;-74
2022/09/26 05:04:50;;;;;;;7.78;5.22;;;;;;;9.50;100.00;100131.63;2071737;28;20038;-74
2022/09/26 05:05:53;;;;;;;9.70;5.40;;;;;;;9.49;100.00;100124.56;2072206;28;20136;-75
2022/09/26 05:06:56;;;;;;;8.80;5.47;;;;;;;9.51;100.00;100124.47;2071515;28;20817;-74
2022/09/26 05:08:02;;;;;;;10.05;5.20;;;;;;;9.51;100.00;100120.03;2072958;28;20050;-73
2022/09/26 05:09:04;;;;;;;8.38;5.10;;;;;;;9.51;100.00;100122.72;2071699;28;20844;-74
2022/09/26 05:10:18;;;;;;;7.43;4.78;;;;;;;9.51;100.00;100119.13;2073795;28;20038;-74
2022/09/26 05:11:28;;;;;;;6.82;5.38;;;;;;;9.51;100.00;100112.03;2072493;28;20935;-73
2022/09/26 05:12:31;;;;;;;9.48;5.00;;;;;;;9.50;100.00;100112.94;2080292;28;25255;-75
2022/09/26 05:13:36;;;;;;;8.88;5.30;;;;;;;9.51;100.00;100116.47;2079833;28;20180;-75
2022/09/26 05:14:43;;;;;;;6.63;4.50;;;;;;;9.49;100.00;100111.19;2064333;28;20035;-74
2022/09/26 05:15:44;;;;;;;6.55;4.97;;;;;;;9.49;100.00;100108.53;2073605;28;20491;-74
2022/09/26 05:16:47;;;;;;;9.23;5.30;;;;;;;9.49;100.00;100103.19;2071833;28;20054;-75
2022/09/26 05:17:58;;;;;;;7.70;4.57;;;;;;;9.51;100.00;100103.09;2064427;28;20189;-75
2022/09/26 05:19:03;;;;;;;9.98;5.65;;;;;;;9.49;100.00;100107.63;2065340;28;20073;-75
2022/09/26 05:20:08;;;;;;;7.78;5.55;;;;;;;9.49;100.00;100096.94;2073104;28;20811;-74
2022/09/26 05:21:19;;;;;;;5.53;4.53;;;;;;;9.49;100.00;100107.63;2081736;28;20104;-74
2022/09/26 05:22:20;;;;;;;9.27;5.35;;;;;;;9.48;100.00;100104.09;2079937;28;20038;-75
2022/09/26 05:26:37;;;;;;;11.98;5.80;;;;;;;9.48;100.00;100098.75;2074832;28;20042;-75
2022/09/26 05:27:39;;;;;;;9.95;5.53;;;;;;;9.47;100.00;100105.00;2075190;28;20038;-75
2022/09/26 05:28:41;;;;;;;6.80;5.15;;;;;;;9.49;100.00;100094.28;2072017;28;20214;-75
2022/09/26 05:29:44;;;;;;;10.68;5.40;;;;;;;9.48;100.00;100106.75;2071653;28;20176;-75
2022/09/26 05:30:46;;;;;;;8.43;5.60;;;;;;;9.49;100.00;100097.84;2088211;28;20049;-75